createdAt,value
2019-01-31T00:00:27.188Z,99.90
2019-01-31T00:03:32.141Z,99.90
2019-01-31T00:06:57.520Z,99.90
2019-01-31T00:10:25.186Z,99.90
2019-01-31T00:13:32.952Z,99.90
2019-01-31T00:16:50.984Z,99.90
2019-01-31T00:20:08.193Z,99.90
2019-01-31T00:23:45.339Z,99.90
2019-01-31T00:27:02.359Z,99.90
2019-01-31T00:29:58.298Z,99.90
2019-01-31T00:33:31.776Z,99.90
2019-01-31T00:36:42.459Z,99.90
2019-01-31T00:40:16.358Z,99.90
2019-01-31T00:43:15.130Z,99.90
2019-01-31T00:46:43.410Z,99.90
2019-01-31T00:50:21.297Z,99.90
2019-01-31T00:53:39.053Z,99.90
2019-01-31T00:56:56.236Z,99.90
2019-01-31T01:00:01.714Z,99.90
2019-01-31T01:03:32.367Z,99.90
2019-01-31T01:06:38.153Z,99.90
2019-01-31T01:09:46.501Z,99.90
2019-01-31T01:12:35.856Z,99.90
2019-01-31T01:15:28.343Z,99.90
2019-01-31T01:18:39.622Z,99.90
2019-01-31T01:21:50.014Z,99.90
2019-01-31T01:25:22.502Z,99.90
2019-01-31T01:28:26.660Z,99.90
2019-01-31T01:31:38.873Z,99.90
2019-01-31T01:35:01.310Z,99.90
2019-01-31T01:38:12.567Z,99.90
2019-01-31T01:41:33.197Z,99.90
2019-01-31T01:45:08.442Z,99.90
2019-01-31T01:48:04.640Z,99.90
2019-01-31T01:51:08.035Z,99.90
2019-01-31T01:54:27.497Z,99.90
2019-01-31T01:57:42.602Z,99.90
2019-01-31T02:00:48.035Z,99.90
2019-01-31T02:03:58.354Z,99.90
2019-01-31T02:07:35.400Z,99.90
2019-01-31T02:11:02.938Z,99.90
2019-01-31T02:14:30.384Z,99.90
2019-01-31T02:17:37.172Z,99.90
2019-01-31T02:21:19.784Z,99.90
2019-01-31T02:24:22.560Z,99.90
2019-01-31T02:27:52.514Z,99.90
2019-01-31T02:31:32.949Z,99.90
2019-01-31T02:34:44.154Z,99.90
2019-01-31T02:38:21.245Z,99.90
2019-01-31T02:41:42.744Z,99.90
2019-01-31T02:45:00.346Z,99.90
2019-01-31T02:48:03.032Z,99.90
2019-01-31T02:51:21.399Z,99.90
2019-01-31T02:54:25.754Z,99.90
2019-01-31T02:57:49.123Z,99.90
2019-01-31T03:00:54.050Z,99.90
2019-01-31T03:04:32.503Z,99.90
2019-01-31T03:07:51.610Z,99.90
2019-01-31T03:10:44.376Z,99.90
2019-01-31T03:13:43.413Z,99.90
2019-01-31T03:17:30.501Z,99.90
2019-01-31T03:21:06.901Z,99.90
2019-01-31T03:24:37.745Z,99.90
2019-01-31T03:28:18.115Z,99.90
2019-01-31T03:31:34.714Z,99.90
2019-01-31T03:35:13.669Z,99.90
2019-01-31T03:38:23.662Z,99.90
2019-01-31T03:41:44.677Z,99.90
2019-01-31T03:44:32.274Z,99.90
2019-01-31T03:47:50.138Z,99.90
2019-01-31T03:50:33.409Z,99.90
2019-01-31T03:53:49.695Z,99.90
2019-01-31T03:56:44.675Z,99.90
2019-01-31T03:59:30.772Z,99.90
2019-01-31T04:03:15.921Z,99.90
2019-01-31T04:06:02.249Z,99.90
2019-01-31T04:08:30.037Z,99.90
2019-01-31T04:10:57.840Z,99.90
2019-01-31T04:13:25.575Z,99.90
2019-01-31T04:15:53.345Z,99.90
2019-01-31T04:18:21.111Z,99.90
2019-01-31T04:20:51.098Z,99.90
2019-01-31T04:23:18.673Z,99.90
2019-01-31T04:25:46.421Z,99.90
2019-01-31T04:28:14.206Z,99.90
2019-01-31T04:30:42.075Z,99.90
2019-01-31T04:33:09.812Z,99.90
2019-01-31T04:35:37.562Z,99.90
2019-01-31T04:38:05.454Z,99.90
2019-01-31T04:40:33.239Z,99.90
2019-01-31T04:43:01.038Z,99.90
2019-01-31T04:45:29.027Z,99.90
2019-01-31T04:47:57.004Z,99.90
2019-01-31T04:50:24.969Z,99.90
2019-01-31T04:52:52.899Z,99.90
2019-01-31T04:55:20.661Z,99.90
2019-01-31T04:57:48.590Z,99.90
2019-01-31T05:00:17.766Z,99.90
2019-01-31T05:02:45.723Z,99.90
2019-01-31T05:05:13.769Z,99.90
2019-01-31T05:07:41.733Z,99.90
2019-01-31T05:10:11.160Z,99.90
2019-01-31T05:12:39.085Z,99.90
2019-01-31T05:15:09.584Z,99.90
2019-01-31T05:17:38.010Z,99.90
2019-01-31T05:20:10.070Z,99.90
2019-01-31T05:22:38.081Z,99.90
2019-01-31T05:25:06.426Z,99.90
2019-01-31T05:27:34.562Z,99.90
2019-01-31T05:30:03.717Z,99.90
2019-01-31T05:32:31.456Z,99.90
2019-01-31T05:34:59.213Z,99.90
2019-01-31T05:37:27.133Z,99.90
2019-01-31T05:39:54.919Z,99.90
2019-01-31T05:42:22.895Z,99.90
2019-01-31T05:44:50.686Z,99.90
2019-01-31T05:47:18.419Z,99.90
2019-01-31T05:49:46.295Z,99.90
2019-01-31T05:52:14.130Z,99.90
2019-01-31T05:54:41.919Z,99.90
2019-01-31T05:57:09.890Z,99.90
2019-01-31T05:59:37.692Z,99.90
2019-01-31T06:02:05.627Z,99.90
2019-01-31T06:04:34.981Z,99.90
2019-01-31T06:07:11.022Z,99.90
2019-01-31T06:09:32.646Z,99.90
2019-01-31T06:12:00.418Z,99.90
2019-01-31T06:14:28.202Z,99.90
2019-01-31T06:16:55.989Z,99.90
2019-01-31T06:19:23.890Z,99.90
2019-01-31T06:21:51.702Z,99.90
2019-01-31T06:24:19.510Z,99.90
2019-01-31T06:26:47.622Z,99.90
2019-01-31T06:29:15.405Z,99.90
2019-01-31T06:31:43.268Z,99.90
2019-01-31T06:34:11.056Z,99.90
2019-01-31T06:36:38.907Z,99.90
2019-01-31T06:39:08.223Z,99.90
2019-01-31T06:41:36.007Z,99.90
2019-01-31T06:44:04.108Z,99.90
2019-01-31T06:46:31.984Z,99.90
2019-01-31T06:48:59.734Z,99.90
2019-01-31T06:51:27.498Z,99.90
2019-01-31T06:53:55.427Z,99.90
2019-01-31T06:56:23.292Z,99.90
2019-01-31T06:58:51.097Z,99.90
2019-01-31T07:01:18.899Z,99.90
2019-01-31T07:03:46.661Z,99.90
2019-01-31T07:06:14.446Z,99.90
2019-01-31T07:08:42.569Z,99.90
2019-01-31T07:11:10.353Z,99.90
2019-01-31T07:13:38.407Z,99.90
2019-01-31T07:16:06.344Z,99.90
2019-01-31T07:18:34.355Z,99.90
2019-01-31T07:21:02.220Z,99.90
2019-01-31T07:23:30.221Z,99.90
2019-01-31T07:25:58.119Z,99.90
2019-01-31T07:28:25.945Z,99.90
2019-01-31T07:30:53.821Z,99.90
2019-01-31T07:33:21.901Z,99.90
2019-01-31T07:35:52.058Z,99.90
2019-01-31T07:38:19.611Z,99.90
2019-01-31T07:40:47.486Z,99.90
2019-01-31T07:43:15.255Z,99.90
2019-01-31T07:45:43.161Z,99.90
2019-01-31T07:48:10.903Z,99.90
2019-01-31T07:50:38.736Z,99.90
2019-01-31T07:53:06.531Z,99.90
2019-01-31T07:55:34.287Z,99.90
2019-01-31T07:58:02.252Z,99.90
2019-01-31T08:00:30.463Z,99.90
2019-01-31T08:02:58.565Z,99.90
2019-01-31T08:05:26.461Z,99.90
2019-01-31T08:07:55.193Z,99.90
2019-01-31T08:10:36.001Z,99.90
2019-01-31T08:13:04.069Z,99.90
2019-01-31T08:15:32.023Z,99.90
2019-01-31T08:17:59.814Z,99.90
2019-01-31T08:20:27.700Z,99.90
2019-01-31T08:22:55.688Z,99.90
2019-01-31T08:25:23.837Z,99.90
2019-01-31T08:27:52.100Z,99.90
2019-01-31T08:30:31.889Z,99.90
2019-01-31T08:32:59.714Z,99.90
2019-01-31T08:35:27.697Z,99.90
2019-01-31T08:37:55.504Z,99.90
2019-01-31T08:40:23.340Z,99.90
2019-01-31T08:42:51.214Z,99.90
2019-01-31T08:45:19.049Z,99.90
2019-01-31T08:47:46.879Z,99.90
2019-01-31T08:50:18.057Z,99.90
2019-01-31T08:52:45.976Z,99.90
2019-01-31T08:55:13.996Z,99.90
2019-01-31T08:57:41.805Z,99.90
2019-01-31T09:00:19.240Z,99.90
2019-01-31T09:02:47.043Z,99.90
2019-01-31T09:05:14.930Z,99.90
2019-01-31T09:07:42.776Z,99.90
2019-01-31T09:10:14.782Z,99.90
2019-01-31T09:12:42.643Z,99.90
2019-01-31T09:15:12.962Z,99.90
2019-01-31T09:17:40.979Z,99.90
2019-01-31T09:20:11.505Z,99.90
2019-01-31T09:23:24.761Z,99.90
2019-01-31T09:26:39.953Z,99.90
2019-01-31T09:30:28.014Z,99.90
2019-01-31T09:33:37.638Z,99.90
2019-01-31T09:36:45.733Z,99.90
2019-01-31T09:39:47.121Z,99.90
2019-01-31T09:42:50.862Z,99.90
2019-01-31T09:46:19.136Z,99.90
2019-01-31T09:49:48.269Z,99.90
2019-01-31T09:52:54.527Z,99.90
2019-01-31T09:56:38.722Z,99.90
2019-01-31T10:00:03.046Z,99.90
2019-01-31T10:03:30.844Z,99.90
2019-01-31T10:06:36.125Z,99.90
2019-01-31T10:09:37.782Z,99.90
2019-01-31T10:12:53.398Z,99.90
2019-01-31T10:16:24.329Z,99.90
2019-01-31T10:19:30.108Z,99.90
2019-01-31T10:22:55.970Z,99.90
2019-01-31T10:26:01.120Z,99.90
2019-01-31T10:29:29.276Z,99.90
2019-01-31T10:32:28.617Z,99.90
2019-01-31T10:35:25.897Z,99.90
2019-01-31T10:38:35.450Z,99.90
2019-01-31T10:41:41.432Z,99.90
2019-01-31T10:45:26.553Z,87.20
2019-01-31T10:48:56.704Z,81.00
2019-01-31T10:52:42.047Z,75.00
2019-01-31T10:56:06.731Z,70.40
2019-01-31T10:59:07.232Z,64.30
2019-01-31T11:02:31.580Z,62.00
2019-01-31T11:05:47.369Z,58.10
2019-01-31T11:08:58.941Z,52.90
2019-01-31T11:12:03.471Z,52.40
2019-01-31T11:15:18.257Z,54.20
2019-01-31T11:18:31.107Z,58.00
2019-01-31T11:21:59.189Z,60.70
2019-01-31T11:25:16.869Z,64.10
2019-01-31T11:28:26.103Z,62.60
2019-01-31T11:31:59.975Z,60.10
2019-01-31T11:35:18.119Z,57.10
2019-01-31T11:38:47.349Z,52.60
2019-01-31T11:42:06.821Z,49.70
2019-01-31T11:45:26.122Z,52.40
2019-01-31T11:48:46.033Z,52.70
2019-01-31T11:52:13.965Z,51.20
2019-01-31T11:55:33.185Z,51.00
2019-01-31T11:58:24.986Z,51.50
2019-01-31T12:00:53.228Z,51.20
2019-01-31T12:05:49.452Z,51.80
2019-01-31T12:08:17.289Z,54.20
2019-01-31T12:10:45.063Z,52.10
2019-01-31T12:13:23.398Z,48.70
2019-01-31T12:15:42.585Z,50.50
2019-01-31T12:18:10.480Z,52.00
2019-01-31T12:20:38.279Z,51.50
2019-01-31T12:23:06.100Z,53.70
2019-01-31T12:25:33.864Z,59.40
2019-01-31T12:28:01.670Z,63.70
2019-01-31T12:30:29.471Z,68.00
2019-01-31T12:32:57.300Z,70.30
2019-01-31T12:35:25.074Z,71.60
2019-01-31T12:37:52.838Z,74.40
2019-01-31T12:40:20.736Z,78.00
2019-01-31T12:42:48.515Z,79.60
2019-01-31T12:45:17.995Z,82.90
2019-01-31T12:47:45.895Z,83.40
2019-01-31T12:50:17.758Z,81.90
2019-01-31T12:52:45.600Z,83.20
2019-01-31T12:55:13.595Z,83.60
2019-01-31T12:57:41.358Z,83.70
2019-01-31T13:00:18.714Z,83.90
2019-01-31T13:02:46.558Z,84.60
2019-01-31T13:05:15.006Z,83.20
2019-01-31T13:07:43.534Z,84.70
2019-01-31T13:10:11.643Z,84.60
2019-01-31T13:12:48.264Z,86.10
2019-01-31T13:15:09.934Z,86.70
2019-01-31T13:17:37.738Z,87.00
2019-01-31T13:20:11.784Z,87.40
2019-01-31T13:22:39.550Z,88.70
2019-01-31T13:25:07.915Z,90.10
2019-01-31T13:27:35.752Z,90.20
2019-01-31T13:30:05.031Z,90.40
2019-01-31T13:32:32.836Z,90.20
2019-01-31T13:35:00.753Z,90.20
2019-01-31T13:37:28.615Z,89.60
2019-01-31T13:39:56.383Z,90.20
2019-01-31T13:42:24.217Z,90.90
2019-01-31T13:44:52.487Z,90.30
2019-01-31T13:47:20.307Z,90.40
2019-01-31T13:49:48.529Z,89.60
2019-01-31T13:52:16.552Z,89.90
2019-01-31T13:54:44.343Z,89.60
2019-01-31T13:57:12.435Z,89.40
2019-01-31T13:59:40.229Z,88.10
2019-01-31T14:02:09.453Z,88.90
2019-01-31T14:04:37.349Z,88.10
2019-01-31T14:07:05.105Z,88.50
2019-01-31T14:09:32.925Z,88.50
2019-01-31T14:12:00.746Z,88.60
2019-01-31T14:14:28.555Z,88.30
2019-01-31T14:16:56.320Z,88.40
2019-01-31T14:19:24.147Z,88.30
2019-01-31T14:21:51.960Z,88.80
2019-01-31T14:24:19.637Z,89.60
2019-01-31T14:26:47.412Z,90.40
2019-01-31T14:29:15.182Z,91.10
2019-01-31T14:31:43.058Z,91.40
2019-01-31T14:34:10.846Z,91.80
2019-01-31T14:36:38.622Z,92.50
2019-01-31T14:39:08.553Z,92.80
2019-01-31T14:41:36.360Z,93.00
2019-01-31T14:44:04.684Z,93.30
2019-01-31T14:46:32.479Z,93.30
2019-01-31T14:49:02.309Z,93.30
2019-01-31T14:51:29.980Z,93.60
2019-01-31T14:53:57.804Z,93.40
2019-01-31T14:58:53.330Z,93.10
2019-01-31T15:01:21.176Z,90.50
2019-01-31T15:03:51.513Z,86.60
2019-01-31T15:06:18.627Z,82.40
2019-01-31T15:08:46.422Z,77.60
2019-01-31T15:11:14.229Z,76.00
2019-01-31T15:13:43.213Z,75.00
2019-01-31T15:16:11.099Z,77.00
2019-01-31T15:18:38.948Z,80.70
2019-01-31T15:21:06.745Z,83.40
2019-01-31T15:23:34.525Z,86.40
2019-01-31T15:26:02.405Z,88.40
2019-01-31T15:28:30.197Z,89.80
2019-01-31T15:33:25.771Z,91.60
2019-01-31T15:35:53.553Z,92.80
2019-01-31T15:38:21.293Z,92.90
2019-01-31T15:40:49.086Z,93.40
2019-01-31T15:43:16.983Z,94.70
2019-01-31T15:45:47.383Z,95.10
2019-01-31T15:48:15.569Z,94.80
2019-01-31T15:50:43.393Z,96.50
2019-01-31T15:53:13.491Z,98.10
2019-01-31T15:55:42.051Z,99.80
2019-01-31T15:58:09.841Z,99.90
2019-01-31T16:00:47.532Z,99.90
2019-01-31T16:03:20.866Z,99.90
2019-01-31T16:05:49.270Z,99.90
2019-01-31T16:08:17.198Z,99.90
2019-01-31T16:10:45.048Z,99.90
2019-01-31T16:13:15.259Z,99.90
2019-01-31T16:15:43.970Z,99.90
2019-01-31T16:18:12.428Z,99.90
2019-01-31T16:20:41.431Z,99.90
2019-01-31T16:23:11.168Z,99.90
2019-01-31T16:25:38.966Z,99.90
2019-01-31T16:28:06.808Z,99.90
2019-01-31T16:30:34.805Z,99.90
2019-01-31T16:33:03.169Z,99.90
2019-01-31T16:35:31.349Z,99.90
2019-01-31T16:37:59.253Z,99.90
2019-01-31T16:40:27.014Z,99.90
2019-01-31T16:42:54.965Z,99.90
2019-01-31T16:45:22.734Z,99.90
2019-01-31T16:47:51.145Z,99.90
2019-01-31T16:50:19.099Z,99.90
2019-01-31T16:52:46.876Z,99.90
2019-01-31T16:55:17.214Z,99.90
2019-01-31T16:57:45.592Z,99.90
2019-01-31T17:00:23.943Z,99.90
2019-01-31T17:02:51.827Z,99.90
2019-01-31T17:05:22.799Z,99.90
2019-01-31T17:07:50.837Z,99.90
2019-01-31T17:10:18.821Z,99.90
2019-01-31T17:12:46.776Z,99.90
2019-01-31T17:15:18.150Z,99.90
2019-01-31T17:17:45.479Z,99.90
2019-01-31T17:20:40.585Z,99.90
2019-01-31T17:23:08.387Z,99.90
2019-01-31T17:25:36.146Z,99.90
2019-01-31T17:28:04.311Z,99.90
2019-01-31T17:30:32.106Z,99.90
2019-01-31T17:33:00.350Z,99.90
2019-01-31T17:35:28.328Z,99.90
2019-01-31T17:37:56.129Z,99.90
2019-01-31T17:40:27.837Z,99.90
2019-01-31T17:42:57.340Z,99.90
2019-01-31T17:45:30.532Z,99.90
2019-01-31T17:47:55.483Z,99.90
2019-01-31T17:50:23.239Z,99.90
2019-01-31T17:52:51.318Z,99.90
2019-01-31T17:55:20.035Z,99.90
2019-01-31T17:57:48.137Z,99.90
2019-01-31T18:00:28.789Z,99.90
2019-01-31T18:02:56.570Z,99.90
2019-01-31T18:05:24.489Z,99.90
2019-01-31T18:07:52.444Z,99.90
2019-01-31T18:10:20.578Z,99.90
2019-01-31T18:12:48.380Z,99.90
2019-01-31T18:15:16.288Z,99.90
2019-01-31T18:17:44.254Z,99.90
2019-01-31T18:20:15.536Z,99.90
2019-01-31T18:22:43.282Z,99.90
2019-01-31T18:25:11.293Z,99.90
2019-01-31T18:27:39.331Z,99.90
2019-01-31T18:30:15.202Z,99.90
2019-01-31T18:32:43.273Z,99.90
2019-01-31T18:35:11.086Z,99.90
2019-01-31T18:37:39.020Z,99.90
2019-01-31T18:40:12.240Z,99.90
2019-01-31T18:42:40.194Z,99.90
2019-01-31T18:45:12.515Z,99.90
2019-01-31T18:47:40.481Z,99.90
2019-01-31T18:50:13.673Z,99.90
2019-01-31T18:52:41.466Z,99.90
2019-01-31T18:55:11.916Z,99.90
2019-01-31T18:57:39.892Z,99.90
2019-01-31T19:00:26.031Z,99.90
2019-01-31T19:02:54.201Z,99.90
2019-01-31T19:05:22.191Z,99.90
2019-01-31T19:07:50.197Z,99.90
2019-01-31T19:10:18.432Z,99.90
2019-01-31T19:12:46.592Z,99.90
2019-01-31T19:15:16.356Z,99.90
2019-01-31T19:17:44.092Z,99.90
2019-01-31T19:20:21.928Z,99.90
2019-01-31T19:22:49.862Z,99.90
2019-01-31T19:25:18.025Z,99.90
2019-01-31T19:27:46.258Z,99.90
2019-01-31T19:30:23.829Z,99.90
2019-01-31T19:32:51.767Z,99.90
2019-01-31T19:35:19.789Z,99.90
2019-01-31T19:37:47.809Z,99.90
2019-01-31T19:40:19.440Z,99.90
2019-01-31T19:42:47.438Z,99.90
2019-01-31T19:45:50.084Z,99.90
2019-01-31T19:48:17.945Z,99.90
2019-01-31T19:50:45.982Z,99.90
2019-01-31T19:53:14.317Z,99.90
2019-01-31T19:55:42.163Z,99.90
2019-01-31T19:58:10.196Z,99.90
2019-01-31T20:00:38.271Z,99.90
2019-01-31T20:03:06.969Z,99.90
2019-01-31T20:05:35.588Z,99.90
2019-01-31T20:08:05.255Z,99.90
2019-01-31T20:10:33.037Z,99.90
2019-01-31T20:13:00.980Z,99.90
2019-01-31T20:15:29.332Z,99.90
2019-01-31T20:17:57.162Z,99.90
2019-01-31T20:20:26.146Z,99.90
2019-01-31T20:22:55.514Z,99.90
2019-01-31T20:25:25.911Z,99.90
2019-01-31T20:27:53.713Z,99.90
2019-01-31T20:30:25.552Z,99.90
2019-01-31T20:32:53.936Z,99.90
2019-01-31T20:35:21.952Z,99.90
2019-01-31T20:37:50.076Z,99.90
2019-01-31T20:40:21.811Z,99.90
2019-01-31T20:42:49.878Z,99.90
2019-01-31T20:45:17.994Z,99.90
2019-01-31T20:47:45.897Z,99.90
2019-01-31T20:50:17.905Z,99.90
2019-01-31T20:52:45.847Z,99.90
2019-01-31T20:55:14.613Z,99.90
2019-01-31T20:57:42.559Z,99.90
2019-01-31T21:00:36.439Z,99.90
2019-01-31T21:03:05.750Z,99.90
2019-01-31T21:05:34.024Z,99.90
2019-01-31T21:08:01.964Z,99.90
2019-01-31T21:10:30.023Z,99.90
2019-01-31T21:12:57.797Z,99.90
2019-01-31T21:15:25.871Z,99.90
2019-01-31T21:17:54.110Z,99.90
2019-01-31T21:20:21.923Z,99.90
2019-01-31T21:22:50.105Z,99.90
2019-01-31T21:25:18.235Z,99.90
2019-01-31T21:27:46.413Z,99.90
2019-01-31T21:30:24.271Z,99.90
2019-01-31T21:32:52.193Z,99.90
2019-01-31T21:35:20.774Z,99.90
2019-01-31T21:37:48.627Z,99.90
2019-01-31T21:40:16.651Z,99.90
2019-01-31T21:42:44.521Z,99.90
2019-01-31T21:45:14.300Z,99.90
2019-01-31T21:47:42.179Z,99.90
2019-01-31T21:50:13.689Z,99.90
2019-01-31T21:52:41.503Z,99.90
2019-01-31T21:55:10.073Z,99.90
2019-01-31T21:57:37.991Z,99.90
2019-01-31T22:00:10.488Z,99.90
2019-01-31T22:02:38.479Z,99.90
2019-01-31T22:05:08.294Z,99.90
2019-01-31T22:07:36.109Z,99.90
2019-01-31T22:10:06.689Z,99.90
2019-01-31T22:12:34.486Z,99.90
2019-01-31T22:15:02.283Z,99.90
2019-01-31T22:17:30.246Z,99.90
2019-01-31T22:19:58.004Z,99.90
2019-01-31T22:22:25.791Z,99.90
2019-01-31T22:24:53.624Z,99.90
2019-01-31T22:27:21.493Z,99.90
2019-01-31T22:29:49.354Z,99.90
2019-01-31T22:32:17.122Z,99.90
2019-01-31T22:34:44.972Z,99.90
2019-01-31T22:37:12.772Z,99.90
2019-01-31T22:39:40.570Z,99.90
2019-01-31T22:42:08.418Z,99.90
2019-01-31T22:44:36.252Z,99.90
2019-01-31T22:47:04.006Z,99.90
2019-01-31T22:49:31.822Z,99.90
2019-01-31T22:51:59.604Z,99.90
2019-01-31T22:54:27.385Z,99.90
2019-01-31T22:56:55.126Z,99.90
2019-01-31T22:59:22.886Z,99.90
2019-01-31T23:01:53.534Z,99.90
2019-01-31T23:04:21.310Z,99.90
2019-01-31T23:06:49.079Z,99.90
2019-01-31T23:09:16.952Z,99.90
2019-01-31T23:11:44.727Z,99.90
2019-01-31T23:14:12.712Z,99.90
2019-01-31T23:16:40.477Z,99.90
2019-01-31T23:19:08.416Z,99.90
2019-01-31T23:21:36.188Z,99.90
2019-01-31T23:24:05.442Z,99.90
2019-01-31T23:26:36.247Z,99.90
2019-01-31T23:29:03.369Z,99.90
2019-01-31T23:31:31.157Z,99.90
2019-01-31T23:33:58.903Z,99.90
2019-01-31T23:36:26.779Z,99.90
2019-01-31T23:38:54.549Z,99.90
2019-01-31T23:41:22.428Z,99.90
2019-01-31T23:43:50.327Z,99.90
2019-01-31T23:46:18.272Z,99.90
2019-01-31T23:48:46.025Z,99.90
2019-01-31T23:51:13.901Z,99.90
2019-01-31T23:53:41.819Z,99.90
2019-01-31T23:56:09.716Z,99.90
2019-01-31T23:58:39.890Z,99.90
